Time;durP1;ratioP1;P1;durP2;ratioP2;P2;SDS_P1;SDS_P2;PMS_P1;PMS_P2;Temp;Humidity;BMP_temperature;BMP_pressure;BME280_temperature;BME280_humidity;BME280_pressure;Samples;Min_cycle;Max_cycle;Signal;HPM_P1;HPM_P2
2023/09/20 00:02:25;;;;;;;7.90;4.40;;;;;;;20.44;45.64;100673.73;108150;1287;22454;-59
2023/09/20 00:04:50;;;;;;;6.00;4.20;;;;;;;20.38;45.53;100677.25;108096;1284;21955;-59
2023/09/20 00:07:16;;;;;;;6.30;4.70;;;;;;;20.30;45.66;100680.09;108106;1284;21992;-59
2023/09/20 00:09:42;;;;;;;6.60;4.50;;;;;;;20.25;45.68;100684.64;108084;1283;22013;-58
2023/09/20 00:12:07;;;;;;;8.60;4.90;;;;;;;20.17;45.74;100686.25;108085;1280;22452;-66
2023/09/20 00:14:33;;;;;;;7.70;5.30;;;;;;;20.10;46.05;100686.59;108106;1288;22000;-59
2023/09/20 00:17:00;;;;;;;6.50;4.80;;;;;;;20.04;46.16;100687.05;108109;1288;21999;-67
2023/09/20 00:19:26;;;;;;;7.30;4.90;;;;;;;20.01;46.25;100687.02;108107;1288;21986;-67
2023/09/20 00:21:52;;;;;;;6.00;5.30;;;;;;;20.00;46.58;100682.73;108110;1288;21996;-59
2023/09/20 00:24:17;;;;;;;11.20;4.80;;;;;;;20.00;46.69;100681.36;108138;1283;21985;-67
2023/09/20 00:26:43;;;;;;;9.70;5.40;;;;;;;20.00;46.89;100682.08;108106;1284;22021;-59
2023/09/20 00:29:08;;;;;;;8.80;5.50;;;;;;;20.00;47.13;100681.89;108107;1288;21991;-59
2023/09/20 00:31:34;;;;;;;7.60;5.20;;;;;;;19.98;47.05;100681.06;108134;1280;22024;-58
2023/09/20 00:34:03;;;;;;;7.00;5.30;;;;;;;19.98;47.17;100680.04;108145;1287;22048;-68
2023/09/20 00:36:32;;;;;;;8.20;5.10;;;;;;;19.97;47.28;100676.48;108152;1288;22066;-66
2023/09/20 00:38:58;;;;;;;8.10;5.50;;;;;;;19.98;47.34;100680.20;108093;1287;21990;-66
2023/09/20 00:41:24;;;;;;;6.80;5.50;;;;;;;19.98;47.38;100680.02;108105;1283;22031;-66
2023/09/20 00:43:53;;;;;;;6.50;5.10;;;;;;;19.97;47.45;100682.20;108122;1281;23786;-67
2023/09/20 00:46:19;;;;;;;10.40;5.70;;;;;;;19.95;47.47;100680.70;108127;1283;21993;-67
2023/09/20 00:48:45;;;;;;;8.20;5.60;;;;;;;19.93;47.43;100681.17;108117;1284;21998;-58
2023/09/20 00:51:11;;;;;;;6.50;5.00;;;;;;;19.89;47.33;100679.51;108096;1288;21970;-59
2023/09/20 00:53:37;;;;;;;7.40;4.90;;;;;;;19.90;47.40;100680.17;108199;1283;22105;-59
2023/09/20 00:56:04;;;;;;;9.50;5.60;;;;;;;19.92;47.55;100680.11;108110;1288;22002;-59
2023/09/20 00:58:30;;;;;;;9.20;5.30;;;;;;;19.91;47.40;100683.33;107903;1288;21967;-69
2023/09/20 01:00:56;;;;;;;7.20;5.10;;;;;;;19.90;47.35;100684.48;108158;1288;21994;-59
2023/09/20 01:03:22;;;;;;;6.10;4.90;;;;;;;19.86;47.15;100691.77;107941;1287;22044;-57
2023/09/20 01:05:48;;;;;;;7.10;5.00;;;;;;;19.79;47.06;100695.65;107793;1288;21989;-59
2023/09/20 01:08:14;;;;;;;10.30;5.00;;;;;;;19.72;47.16;100698.09;107856;1288;21984;-58
2023/09/20 01:10:40;;;;;;;8.30;5.40;;;;;;;19.68;47.13;100699.50;108121;1280;21993;-59
2023/09/20 01:13:09;;;;;;;9.10;5.10;;;;;;;19.62;47.28;100703.54;107862;1288;22002;-67
2023/09/20 01:15:35;;;;;;;9.40;5.10;;;;;;;19.54;47.33;100702.30;108135;1276;21983;-67
2023/09/20 01:18:02;;;;;;;10.20;5.80;;;;;;;19.50;47.61;100702.80;108092;1283;21990;-67
2023/09/20 01:20:29;;;;;;;8.50;4.80;;;;;;;19.52;47.64;100706.27;108160;1277;22001;-66
2023/09/20 01:22:56;;;;;;;8.90;4.90;;;;;;;19.55;47.86;100704.38;108104;1288;22000;-60
2023/09/20 01:25:31;;;;;;;9.80;5.70;;;;;;;19.54;47.93;100706.35;108138;1284;21993;-67
2023/09/20 01:27:58;;;;;;;13.20;5.30;;;;;;;19.52;48.23;100708.24;108104;1288;21998;-59
2023/09/20 01:30:25;;;;;;;7.20;5.70;;;;;;;19.50;48.46;100707.06;108097;1279;21979;-59
2023/09/20 01:32:57;;;;;;;7.70;5.30;;;;;;;19.56;49.01;100706.45;108211;1287;21990;-68
2023/09/20 01:35:24;;;;;;;9.00;6.00;;;;;;;19.67;49.29;100710.96;108127;1283;21988;-67
2023/09/20 01:37:49;;;;;;;7.60;5.60;;;;;;;19.77;49.43;100712.45;108113;1277;21994;-68
2023/09/20 01:40:15;;;;;;;6.50;5.60;;;;;;;19.87;49.57;100714.14;108087;1280;22080;-57
2023/09/20 01:42:43;;;;;;;7.30;5.50;;;;;;;19.95;49.58;100714.51;108137;1288;22048;-57
2023/09/20 01:45:16;;;;;;;8.00;5.90;;;;;;;20.04;49.66;100708.23;108162;1276;21991;-58
2023/09/20 01:47:49;;;;;;;8.20;5.80;;;;;;;20.12;49.70;100701.06;108131;1280;21999;-66
2023/09/20 01:50:23;;;;;;;7.20;5.00;;;;;;;20.20;49.58;100700.52;108096;1281;21996;-67
2023/09/20 01:52:55;;;;;;;10.30;4.90;;;;;;;20.26;49.53;100700.26;108129;1288;21993;-67
2023/09/20 01:55:22;;;;;;;8.20;5.60;;;;;;;20.29;49.36;100699.41;108223;1288;21994;-67
2023/09/20 01:57:48;;;;;;;9.00;4.90;;;;;;;20.31;49.30;100699.10;108166;1288;21989;-58
2023/09/20 02:00:25;;;;;;;7.80;4.70;;;;;;;20.37;49.40;100698.30;108142;1288;21991;-67
2023/09/20 02:02:55;;;;;;;9.90;4.90;;;;;;;20.41;49.33;100695.08;108042;1288;21996;-59
2023/09/20 02:05:23;;;;;;;8.30;5.00;;;;;;;20.42;49.37;100690.06;108072;1284;22076;-62
2023/09/20 02:07:50;;;;;;;8.00;4.60;;;;;;;20.43;49.26;100686.98;108066;1283;22001;-58
2023/09/20 02:10:18;;;;;;;8.60;5.00;;;;;;;20.46;49.30;100681.30;108096;1280;21996;-59
2023/09/20 02:12:46;;;;;;;5.80;4.60;;;;;;;20.51;49.32;100678.77;108159;1282;23781;-66
2023/09/20 02:15:12;;;;;;;8.10;5.00;;;;;;;20.54;49.39;100679.85;108170;1287;21998;-59
2023/09/20 02:17:38;;;;;;;11.70;4.90;;;;;;;20.58;49.29;100678.38;108112;1283;22013;-65
2023/09/20 02:20:08;;;;;;;8.10;5.70;;;;;;;20.61;49.28;100677.52;108139;1288;22000;-58
2023/09/20 02:22:35;;;;;;;;;;;;;;;20.63;49.27;100682.23;108160;1288;21969;-58
2023/09/20 02:25:03;;;;;;;7.50;5.00;;;;;;;20.61;49.11;100682.89;108124;1283;21999;-67
2023/09/20 02:27:30;;;;;;;8.60;5.50;;;;;;;20.54;49.24;100683.43;108102;1277;21995;-67
2023/09/20 02:29:57;;;;;;;6.50;5.00;;;;;;;20.49;49.33;100683.46;108081;1283;21990;-67
2023/09/20 02:32:23;;;;;;;9.40;5.50;;;;;;;20.51;49.52;100684.27;108085;1283;23046;-66
2023/09/20 02:34:51;;;;;;;11.50;6.30;;;;;;;20.54;49.69;100681.45;108129;1288;21990;-59
2023/09/20 02:37:17;;;;;;;8.00;6.10;;;;;;;20.55;49.57;100682.99;108083;1279;22000;-59
2023/09/20 02:39:42;;;;;;;12.50;6.20;;;;;;;20.56;49.64;100684.55;108149;1284;21994;-58
2023/09/20 02:42:08;;;;;;;6.90;5.70;;;;;;;20.58;49.66;100684.45;108092;1288;21992;-67
2023/09/20 02:44:34;;;;;;;10.60;6.00;;;;;;;20.59;49.67;100681.54;108099;1286;21997;-67
2023/09/20 02:46:59;;;;;;;8.20;6.10;;;;;;;20.60;49.76;100681.86;108072;1288;22003;-67
2023/09/20 02:49:25;;;;;;;8.40;5.80;;;;;;;20.56;50.02;100676.01;108076;1286;22057;-66
2023/09/20 02:51:52;;;;;;;9.40;5.60;;;;;;;20.53;50.14;100675.23;108062;1286;21995;-66
2023/09/20 02:54:19;;;;;;;9.30;5.60;;;;;;;20.53;50.14;100678.11;108138;1286;21990;-59
2023/09/20 02:56:45;;;;;;;12.10;5.90;;;;;;;20.53;50.07;100680.45;108129;1286;23660;-67
2023/09/20 02:59:10;;;;;;;7.40;5.20;;;;;;;20.50;50.01;100683.42;108160;1286;21994;-67
2023/09/20 03:01:36;;;;;;;10.70;5.90;;;;;;;20.46;49.86;100681.48;108086;1283;21995;-67
2023/09/20 03:04:03;;;;;;;15.80;5.50;;;;;;;20.40;49.93;100686.06;108053;1283;22026;-58
2023/09/20 03:06:29;;;;;;;15.40;6.90;;;;;;;20.35;49.90;100682.15;108033;1287;21992;-58
2023/09/20 03:08:55;;;;;;;10.70;5.30;;;;;;;20.34;50.06;100680.05;108108;1283;21997;-67
2023/09/20 03:11:21;;;;;;;9.20;5.70;;;;;;;20.35;50.23;100681.64;108173;1284;22032;-67
2023/09/20 03:13:48;;;;;;;7.80;5.60;;;;;;;20.36;50.43;100674.98;108111;1288;23608;-66
2023/09/20 03:16:18;;;;;;;9.00;5.90;;;;;;;20.39;50.42;100677.56;108047;1280;22559;-67
2023/09/20 03:18:45;;;;;;;8.60;5.50;;;;;;;20.40;50.45;100678.20;108126;1288;22003;-67
2023/09/20 03:21:11;;;;;;;8.10;5.40;;;;;;;20.42;50.48;100676.16;108082;1280;21992;-58
2023/09/20 03:23:37;;;;;;;11.90;6.80;;;;;;;20.43;50.59;100675.91;108154;1288;22016;-58
2023/09/20 03:26:04;;;;;;;12.10;5.60;;;;;;;20.44;50.63;100672.13;108109;1283;23025;-59
2023/09/20 03:28:32;;;;;;;22.40;6.70;;;;;;;20.45;50.64;100671.53;108126;1280;22163;-58
2023/09/20 03:31:02;;;;;;;8.70;6.50;;;;;;;20.47;50.65;100676.64;108172;1288;22311;-67
2023/09/20 03:33:31;;;;;;;7.90;6.10;;;;;;;20.49;50.72;100675.83;108121;1288;21993;-66
2023/09/20 03:36:02;;;;;;;9.30;6.40;;;;;;;20.51;50.80;100676.80;107882;1279;21989;-67
2023/09/20 03:38:27;;;;;;;11.40;6.50;;;;;;;20.52;50.89;100676.95;108102;1288;21979;-58
2023/09/20 03:40:53;;;;;;;9.80;6.30;;;;;;;20.53;50.82;100677.79;108097;1288;21996;-58
2023/09/20 03:43:19;;;;;;;13.40;6.50;;;;;;;20.55;50.97;100678.58;108114;1288;21987;-68
2023/09/20 03:45:45;;;;;;;10.30;6.30;;;;;;;20.57;51.11;100680.25;108102;1283;21992;-67
2023/09/20 03:48:11;;;;;;;10.90;6.70;;;;;;;20.58;51.23;100683.73;108154;1288;22002;-68
2023/09/20 03:50:38;;;;;;;9.60;6.30;;;;;;;20.61;51.36;100683.95;108037;1288;22029;-59
2023/09/20 03:53:04;;;;;;;25.00;6.50;;;;;;;20.63;51.36;100684.03;108151;1287;22006;-67
2023/09/20 03:55:30;;;;;;;13.80;6.00;;;;;;;20.65;51.36;100682.86;108135;1288;22011;-68
2023/09/20 03:57:56;;;;;;;10.20;6.10;;;;;;;20.68;51.26;100685.23;108074;1288;22005;-68
2023/09/20 04:00:28;;;;;;;9.30;6.00;;;;;;;20.69;51.14;100687.13;108145;1282;21987;-62
2023/09/20 04:02:54;;;;;;;14.30;6.40;;;;;;;20.72;51.30;100682.52;108148;1277;22026;-68
2023/09/20 04:05:20;;;;;;;10.10;6.60;;;;;;;20.75;51.42;100681.65;108095;1288;21986;-69
2023/09/20 04:07:47;;;;;;;10.90;6.00;;;;;;;20.78;51.57;100680.98;108085;1277;22006;-64
2023/09/20 04:10:15;;;;;;;10.20;6.40;;;;;;;20.83;51.60;100684.33;108079;1285;22026;-68
2023/09/20 04:12:40;;;;;;;11.30;5.80;;;;;;;20.87;51.67;100685.04;108131;1288;21988;-67
2023/09/20 04:15:07;;;;;;;14.60;5.90;;;;;;;20.90;51.67;100686.83;108086;1288;22012;-67
2023/09/20 04:17:34;;;;;;;12.20;6.10;;;;;;;20.96;51.66;100687.10;108113;1277;21992;-59
2023/09/20 04:20:05;;;;;;;17.00;5.80;;;;;;;21.03;51.97;100684.94;108097;1283;21990;-67
2023/09/20 04:22:31;;;;;;;12.00;6.00;;;;;;;21.12;51.97;100685.88;108110;1288;22027;-59
2023/09/20 04:24:58;;;;;;;12.90;7.60;;;;;;;21.23;52.04;100687.62;108147;1283;21993;-68
2023/09/20 04:27:23;;;;;;;14.30;8.90;;;;;;;21.32;52.13;100687.55;108143;1280;22003;-67
2023/09/20 04:29:49;;;;;;;13.10;10.20;;;;;;;21.41;52.48;100689.77;108110;1288;22001;-67
2023/09/20 04:32:16;;;;;;;16.60;11.10;;;;;;;21.49;52.57;100689.14;108100;1283;21994;-59
2023/09/20 04:34:42;;;;;;;14.20;10.40;;;;;;;21.57;52.56;100689.24;108138;1288;21992;-60
2023/09/20 04:37:08;;;;;;;18.40;11.10;;;;;;;21.69;52.63;100689.02;108086;1283;21992;-58
2023/09/20 04:39:33;;;;;;;16.70;11.00;;;;;;;21.85;52.46;100692.25;108085;1277;22000;-67
2023/09/20 04:41:59;;;;;;;42.90;12.70;;;;;;;21.98;52.62;100691.21;108117;1288;21996;-58
2023/09/20 04:44:24;;;;;;;17.60;10.10;;;;;;;22.09;52.72;100690.06;108111;1288;21986;-58
2023/09/20 04:46:50;;;;;;;15.30;9.20;;;;;;;22.18;52.71;100691.50;108091;1283;22003;-58
2023/09/20 04:49:16;;;;;;;14.70;9.30;;;;;;;22.26;52.73;100690.01;108093;1280;21992;-67
2023/09/20 04:51:42;;;;;;;14.30;10.00;;;;;;;22.31;52.83;100687.95;108120;1288;22009;-66
2023/09/20 04:54:08;;;;;;;15.00;9.30;;;;;;;22.35;52.81;100691.31;108060;1279;22002;-66
2023/09/20 04:56:34;;;;;;;10.60;8.40;;;;;;;22.41;52.76;100690.41;108151;1287;22003;-66
2023/09/20 04:59:00;;;;;;;12.00;8.30;;;;;;;22.53;52.50;100693.01;108108;1280;21993;-67
2023/09/20 05:01:26;;;;;;;10.10;8.00;;;;;;;22.63;52.53;100692.60;108173;1288;21996;-59
2023/09/20 05:03:51;;;;;;;10.20;7.70;;;;;;;22.71;52.64;100693.39;108088;1288;21997;-67
2023/09/20 05:06:18;;;;;;;9.90;7.80;;;;;;;22.81;52.58;100692.77;108084;1279;22205;-61
2023/09/20 05:08:44;;;;;;;10.30;7.80;;;;;;;22.89;52.66;100693.21;108122;1288;21990;-58
2023/09/20 05:11:10;;;;;;;9.50;8.10;;;;;;;22.95;52.91;100691.46;108080;1280;21991;-58
2023/09/20 05:13:37;;;;;;;12.30;8.00;;;;;;;23.03;52.98;100687.77;108075;1279;21995;-69
2023/09/20 05:16:03;;;;;;;14.40;7.80;;;;;;;23.10;52.41;100683.94;108116;1280;22030;-67
2023/09/20 05:18:30;;;;;;;12.70;6.80;;;;;;;23.20;53.02;100685.13;108088;1288;21992;-57
2023/09/20 05:20:56;;;;;;;11.30;7.50;;;;;;;23.30;53.43;100687.08;108170;1277;22044;-60
2023/09/20 05:23:22;;;;;;;12.00;7.90;;;;;;;23.40;53.72;100689.16;107952;1283;23685;-67
2023/09/20 05:25:48;;;;;;;10.40;7.30;;;;;;;23.48;54.06;100688.46;108100;1288;22005;-61
2023/09/20 05:28:15;;;;;;;12.90;7.30;;;;;;;23.57;54.36;100689.90;108126;1283;21999;-59
2023/09/20 05:30:45;;;;;;;9.50;7.00;;;;;;;23.67;54.41;100687.66;108061;1283;24332;-66
2023/09/20 05:33:12;;;;;;;10.50;7.40;;;;;;;23.79;54.63;100684.77;108184;1283;21984;-67
2023/09/20 05:35:40;;;;;;;10.40;6.50;;;;;;;23.89;54.55;100689.71;108138;1288;21997;-59
2023/09/20 05:38:07;;;;;;;11.20;6.10;;;;;;;23.97;54.59;100689.75;108189;1286;24356;-58
2023/09/20 05:40:33;;;;;;;11.90;6.40;;;;;;;24.08;54.74;100691.23;108200;1276;22001;-67
2023/09/20 05:42:59;;;;;;;10.20;5.90;;;;;;;24.21;54.82;100690.25;108117;1283;21991;-68
2023/09/20 05:45:26;;;;;;;10.80;5.70;;;;;;;24.31;54.77;100691.88;108129;1287;21997;-59
2023/09/20 05:47:52;;;;;;;8.70;5.50;;;;;;;24.41;54.63;100696.63;108100;1283;22004;-59
2023/09/20 05:50:33;;;;;;;11.50;5.90;;;;;;;24.52;54.45;100700.23;108163;1277;21990;-59
2023/09/20 05:53:12;;;;;;;66.80;39.60;;;;;;;24.64;54.38;100699.58;108093;1288;22002;-58
2023/09/20 05:55:38;;;;;;;22.50;13.00;;;;;;;24.76;54.19;100697.41;108156;1279;23762;-68
2023/09/20 05:58:05;;;;;;;14.70;7.60;;;;;;;24.86;54.09;100696.96;108155;1283;23776;-68
2023/09/20 06:00:30;;;;;;;11.20;6.40;;;;;;;24.95;54.01;100697.39;108173;1286;21989;-59
2023/09/20 06:02:58;;;;;;;1990.50;813.50;;;;;;;25.04;53.76;100699.46;108068;1286;21990;-59
2023/09/20 06:05:24;;;;;;;747.40;387.10;;;;;;;25.14;53.34;100699.02;108220;1283;21990;-59
2023/09/20 06:07:51;;;;;;;113.10;58.30;;;;;;;25.22;53.13;100699.89;108172;1283;21990;-58
2023/09/20 06:10:17;;;;;;;49.50;25.50;;;;;;;25.30;53.05;100698.08;108167;1283;22056;-59
2023/09/20 06:12:43;;;;;;;16.70;11.80;;;;;;;25.40;52.90;100703.33;108151;1288;22032;-59
2023/09/20 06:15:10;;;;;;;16.10;7.70;;;;;;;25.49;52.75;100705.77;108102;1280;21981;-59
2023/09/20 06:17:36;;;;;;;13.30;4.70;;;;;;;25.57;52.42;100710.23;108167;1277;21990;-59
2023/09/20 06:20:02;;;;;;;12.70;5.30;;;;;;;25.66;52.22;100713.42;108072;1283;22846;-58
2023/09/20 06:22:28;;;;;;;8.00;3.80;;;;;;;25.72;52.04;100714.02;108072;1283;23819;-58
2023/09/20 06:24:58;;;;;;;10.90;3.90;;;;;;;25.79;51.84;100714.60;108077;1283;23640;-58
2023/09/20 06:27:30;;;;;;;10.00;5.20;;;;;;;25.89;51.80;100714.66;108174;1283;21992;-58
2023/09/20 06:30:00;;;;;;;8.90;4.10;;;;;;;26.01;51.73;100716.67;108041;1280;23065;-60
2023/09/20 06:32:25;;;;;;;8.10;4.20;;;;;;;26.12;51.61;100718.37;108084;1288;21992;-58
2023/09/20 06:34:51;;;;;;;6.40;3.50;;;;;;;26.21;51.44;100715.22;108062;1283;21990;-58
2023/09/20 06:37:17;;;;;;;6.00;3.40;;;;;;;26.33;51.29;100714.04;108062;1288;22065;-65
2023/09/20 06:39:43;;;;;;;7.40;3.80;;;;;;;26.46;51.21;100718.13;108037;1288;22006;-65
2023/09/20 06:42:10;;;;;;;8.30;3.50;;;;;;;26.58;51.01;100717.58;108060;1288;24328;-65
2023/09/20 06:44:38;;;;;;;6.50;3.00;;;;;;;26.69;50.76;100717.65;108109;1280;22189;-64
2023/09/20 06:47:05;;;;;;;4.90;2.60;;;;;;;26.82;50.76;100715.98;108064;1284;21993;-65
2023/09/20 06:49:31;;;;;;;6.30;2.50;;;;;;;26.95;50.37;100712.17;108045;1288;21992;-65
2023/09/20 06:52:01;;;;;;;7.70;3.10;;;;;;;27.06;50.32;100716.56;108052;1283;22030;-64
2023/09/20 06:54:30;;;;;;;8.00;3.80;;;;;;;27.23;50.53;100716.48;108072;1288;21996;-64
2023/09/20 06:57:03;;;;;;;9.10;3.40;;;;;;;27.46;50.42;100715.30;108230;1283;22005;-67
2023/09/20 06:59:32;;;;;;;3.90;2.90;;;;;;;27.65;49.92;100716.90;108158;1277;22002;-65
2023/09/20 07:01:59;;;;;;;6.30;3.00;;;;;;;27.81;49.45;100718.34;108171;1280;22459;-66
2023/09/20 07:04:25;;;;;;;7.20;3.20;;;;;;;27.91;48.94;100725.11;108167;1279;22031;-65
2023/09/20 07:07:05;;;;;;;8.10;3.40;;;;;;;27.99;48.94;100732.58;108132;1283;23902;-65
2023/09/20 07:09:31;;;;;;;9.90;3.30;;;;;;;28.12;48.79;100734.65;108080;1279;21994;-65
2023/09/20 07:12:01;;;;;;;8.60;3.70;;;;;;;28.22;48.55;100735.45;108085;1283;21995;-65
2023/09/20 07:14:30;;;;;;;6.30;3.30;;;;;;;28.32;48.32;100737.14;108101;1288;21995;-66
2023/09/20 07:16:55;;;;;;;7.90;3.50;;;;;;;28.45;48.19;100737.52;108087;1288;21993;-65
2023/09/20 07:19:23;;;;;;;6.80;2.90;;;;;;;28.59;48.12;100735.30;108102;1288;21998;-65
2023/09/20 07:21:50;;;;;;;6.00;3.40;;;;;;;28.78;47.80;100733.79;108138;1283;21995;-65
2023/09/20 07:24:15;;;;;;;4.10;2.70;;;;;;;28.94;47.65;100734.44;108086;1277;21991;-66
2023/09/20 07:26:44;;;;;;;6.50;3.30;;;;;;;29.11;47.35;100736.81;108111;1286;21989;-66
2023/09/20 07:29:14;;;;;;;6.70;3.20;;;;;;;29.25;46.68;100730.91;108136;1276;21986;-65
2023/09/20 07:31:40;;;;;;;10.30;3.60;;;;;;;29.38;46.21;100733.09;108110;1277;22052;-65
2023/09/20 07:34:12;;;;;;;5.70;3.50;;;;;;;29.42;46.15;100734.00;108138;1288;21990;-65
2023/09/20 07:36:43;;;;;;;7.50;4.30;;;;;;;29.45;45.99;100728.88;108098;1288;21990;-65
2023/09/20 07:39:13;;;;;;;7.90;3.50;;;;;;;29.56;46.26;100724.49;108073;1283;22104;-66
2023/09/20 07:41:48;;;;;;;5.30;2.60;;;;;;;29.69;45.76;100727.52;108124;1288;21990;-59
2023/09/20 07:44:17;;;;;;;4.00;2.60;;;;;;;29.75;45.27;100726.67;108105;1286;21990;-58
2023/09/20 07:46:43;;;;;;;5.80;3.10;;;;;;;29.79;45.19;100729.35;108156;1288;23587;-59
2023/09/20 07:49:10;;;;;;;5.90;3.10;;;;;;;29.86;44.82;100728.77;108225;1288;21972;-59
2023/09/20 07:51:37;;;;;;;5.00;3.30;;;;;;;29.91;44.79;100719.80;107971;1288;22372;-59
2023/09/20 07:54:10;;;;;;;7.10;3.10;;;;;;;29.98;44.48;100722.98;108114;1283;21995;-59
2023/09/20 07:56:36;;;;;;;5.50;2.50;;;;;;;30.14;44.24;100722.11;108086;1288;22006;-59
2023/09/20 07:59:03;;;;;;;5.80;3.00;;;;;;;30.27;44.08;100723.11;108096;1288;22030;-58
2023/09/20 08:01:30;;;;;;;5.50;2.70;;;;;;;30.37;43.32;100724.39;108116;1288;22163;-66
2023/09/20 08:03:58;;;;;;;7.10;3.10;;;;;;;30.45;43.21;100727.45;108131;1283;21993;-66
2023/09/20 08:06:27;;;;;;;7.00;2.90;;;;;;;30.57;43.49;100728.02;108179;1278;21987;-66
2023/09/20 08:08:55;;;;;;;5.40;2.40;;;;;;;30.71;43.03;100729.52;108209;1288;22164;-66
2023/09/20 08:11:20;;;;;;;6.20;2.60;;;;;;;30.83;42.98;100726.07;108145;1284;22040;-66
2023/09/20 08:13:46;;;;;;;4.30;3.00;;;;;;;30.95;42.70;100723.89;108028;1287;24353;-61
2023/09/20 08:16:12;;;;;;;5.80;2.60;;;;;;;31.08;42.75;100715.90;107953;1283;22002;-61
2023/09/20 08:21:29;;;;;;;5.00;2.50;;;;;;;31.39;41.31;100718.08;108110;1288;22003;-60
2023/09/20 08:59:51;;;;;;;4.30;2.60;;;;;;;32.07;38.62;100712.55;108096;1287;21997;-60
2023/09/20 09:02:17;;;;;;;5.70;2.70;;;;;;;32.06;38.69;100712.84;108093;1283;21987;-60
2023/09/20 09:04:53;;;;;;;8.40;2.90;;;;;;;32.07;38.59;100712.20;108090;1288;21990;-68
2023/09/20 09:07:25;;;;;;;4.80;2.40;;;;;;;32.01;38.27;100706.77;108093;1288;22009;-67
2023/09/20 09:09:51;;;;;;;5.20;2.40;;;;;;;31.89;37.70;100709.55;108057;1287;21993;-66
2023/09/20 09:12:17;;;;;;;11.20;3.10;;;;;;;31.75;38.19;100710.02;108130;1288;21999;-60
2023/09/20 09:14:43;;;;;;;5.20;2.90;;;;;;;31.68;38.23;100710.27;108188;1288;21999;-60
2023/09/20 09:17:10;;;;;;;8.00;2.80;;;;;;;31.64;38.51;100709.29;108067;1288;21984;-60
2023/09/20 09:19:37;;;;;;;5.60;2.50;;;;;;;31.62;38.46;100709.41;108040;1288;21996;-60
2023/09/20 09:22:03;;;;;;;5.90;2.80;;;;;;;31.71;38.68;100711.17;108084;1288;22822;-67
2023/09/20 09:24:47;;;;;;;4.60;2.60;;;;;;;31.82;38.26;100713.88;108076;1288;21988;-60
2023/09/20 09:27:14;;;;;;;5.10;2.30;;;;;;;31.91;38.36;100711.41;108021;1287;22024;-67
2023/09/20 09:29:41;;;;;;;7.40;2.40;;;;;;;32.01;38.28;100710.23;108076;1288;21992;-66
2023/09/20 09:32:07;;;;;;;5.10;2.40;;;;;;;32.10;38.25;100712.94;108077;1283;22172;-60
2023/09/20 09:34:33;;;;;;;4.50;2.60;;;;;;;32.10;37.95;100709.67;108077;1283;22000;-60
2023/09/20 09:36:58;;;;;;;4.90;2.60;;;;;;;32.12;38.10;100706.80;108044;1287;22028;-60
2023/09/20 09:39:25;;;;;;;4.60;2.40;;;;;;;32.14;37.76;100709.67;108085;1287;22003;-66
2023/09/20 09:41:51;;;;;;;5.40;2.30;;;;;;;32.14;38.09;100710.97;108041;1287;22003;-65
2023/09/20 09:44:17;;;;;;;8.00;3.00;;;;;;;32.21;38.05;100710.79;108082;1279;21995;-60
2023/09/20 09:46:43;;;;;;;5.30;2.60;;;;;;;32.27;37.84;100712.90;108122;1278;22033;-66
2023/09/20 09:49:16;;;;;;;8.00;2.70;;;;;;;32.27;37.49;100711.32;107955;1288;23719;-60
2023/09/20 09:51:45;;;;;;;3.60;2.30;;;;;;;32.22;37.51;100711.07;108113;1286;22097;-67
2023/09/20 09:54:14;;;;;;;6.60;3.20;;;;;;;32.20;37.48;100709.10;108070;1288;23647;-66
2023/09/20 09:56:39;;;;;;;12.40;5.50;;;;;;;32.23;37.38;100705.33;108064;1288;21997;-61
2023/09/20 09:59:05;;;;;;;8.50;3.40;;;;;;;32.33;37.67;100707.12;108085;1288;21995;-64
2023/09/20 10:01:36;;;;;;;5.50;2.30;;;;;;;32.48;37.68;100700.52;107708;1288;21967;-61
2023/09/20 10:04:08;;;;;;;3.20;2.40;;;;;;;32.63;37.25;100700.70;108110;1285;22449;-66
2023/09/20 10:06:37;;;;;;;5.80;2.70;;;;;;;32.73;37.03;100702.92;108059;1286;21995;-60
2023/09/20 10:09:10;;;;;;;6.10;2.60;;;;;;;32.77;36.79;100698.50;108161;1283;23728;-67
2023/09/20 10:11:37;;;;;;;4.80;2.00;;;;;;;32.83;36.44;100699.56;108147;1287;22044;-60
2023/09/20 10:14:07;;;;;;;10.30;2.30;;;;;;;32.85;36.62;100698.27;107765;1288;21993;-60
2023/09/20 10:16:34;;;;;;;7.50;2.50;;;;;;;32.90;36.42;100696.66;108072;1288;22092;-60
2023/09/20 10:19:01;;;;;;;10.90;4.10;;;;;;;32.92;36.24;100685.77;107859;1288;22955;-60
2023/09/20 10:21:30;;;;;;;4.80;2.20;;;;;;;32.99;36.16;100685.36;108128;1288;22025;-66
2023/09/20 10:23:58;;;;;;;4.80;2.50;;;;;;;33.09;36.07;100682.02;108158;1283;21984;-67
2023/09/20 10:26:24;;;;;;;8.80;2.50;;;;;;;33.22;35.91;100680.67;108142;1286;22011;-61
2023/09/20 10:28:52;;;;;;;4.70;2.10;;;;;;;33.38;36.02;100685.53;108138;1287;22033;-67
2023/09/20 10:31:18;;;;;;;7.00;2.40;;;;;;;33.52;35.59;100676.93;108162;1283;21995;-61
2023/09/20 10:34:00;;;;;;;6.20;2.50;;;;;;;33.60;35.72;100677.17;108192;1288;23054;-60
2023/09/20 10:36:29;;;;;;;5.50;2.00;;;;;;;33.72;35.21;100676.82;108087;1277;21990;-60
2023/09/20 10:39:20;;;;;;;4.80;2.80;;;;;;;33.75;34.94;100678.80;108059;1288;21994;-68
2023/09/20 10:41:47;;;;;;;7.50;2.70;;;;;;;33.80;34.78;100678.48;108076;1286;22002;-69
2023/09/20 10:44:33;;;;;;;6.50;2.30;;;;;;;33.82;34.48;100677.16;108038;1287;22032;-68
2023/09/20 10:47:04;;;;;;;6.90;2.70;;;;;;;33.88;34.73;100674.50;108140;1287;22030;-60
2023/09/20 10:49:48;;;;;;;6.60;2.20;;;;;;;34.00;34.49;100670.40;107871;1288;21995;-68
2023/09/20 10:52:45;;;;;;;6.10;2.30;;;;;;;34.13;34.06;100668.29;108078;1279;21997;-60
2023/09/20 10:55:18;;;;;;;3.20;2.30;;;;;;;34.11;34.34;100667.54;107952;1287;22028;-60
2023/09/20 10:57:45;;;;;;;4.50;2.20;;;;;;;34.09;34.29;100664.90;108119;1288;24335;-68
2023/09/20 11:00:14;;;;;;;4.30;2.70;;;;;;;34.03;33.88;100669.14;108109;1288;21979;-68
2023/09/20 11:02:42;;;;;;;5.80;2.60;;;;;;;33.98;34.05;100665.13;108140;1287;21990;-59
2023/09/20 11:05:11;;;;;;;6.30;2.10;;;;;;;34.01;34.36;100663.69;108213;1283;22081;-59
2023/09/20 11:07:39;;;;;;;11.90;2.50;;;;;;;34.08;33.91;100662.34;108189;1283;22024;-60
2023/09/20 11:10:11;;;;;;;5.70;2.40;;;;;;;34.12;33.81;100664.33;108107;1288;22003;-68
2023/09/20 11:12:36;;;;;;;6.00;2.50;;;;;;;34.19;33.56;100663.09;108130;1288;22950;-68
2023/09/20 11:15:05;;;;;;;4.60;2.10;;;;;;;34.25;33.79;100664.73;107640;1288;23718;-66
2023/09/20 11:17:31;;;;;;;5.20;2.80;;;;;;;34.31;33.94;100663.98;108111;1286;21999;-66
2023/09/20 11:19:58;;;;;;;5.50;1.70;;;;;;;34.34;33.65;100663.11;108108;1288;21995;-66
2023/09/20 11:22:23;;;;;;;4.60;2.10;;;;;;;34.39;33.63;100661.10;108152;1288;23670;-67
2023/09/20 11:24:51;;;;;;;5.50;2.10;;;;;;;34.49;33.34;100659.63;107657;1288;158261;-66
2023/09/20 11:27:17;;;;;;;6.30;2.40;;;;;;;34.64;33.47;100654.73;108153;1279;21991;-66
2023/09/20 11:29:48;;;;;;;3.50;2.20;;;;;;;34.86;33.19;100653.38;107876;1288;21993;-60
2023/09/20 11:32:15;;;;;;;3.40;2.10;;;;;;;34.97;33.07;100653.84;108147;1283;22036;-60
2023/09/20 11:34:45;;;;;;;7.80;2.50;;;;;;;34.94;32.87;100648.46;108110;1283;22004;-60
2023/09/20 11:37:20;;;;;;;4.20;2.40;;;;;;;34.96;32.85;100645.89;108123;1288;21996;-61
2023/09/20 11:39:46;;;;;;;3.50;2.50;;;;;;;34.95;32.96;100651.51;108244;1287;22455;-61
2023/09/20 11:42:35;;;;;;;4.20;2.10;;;;;;;34.82;32.89;100649.06;107855;1276;23827;-66
2023/09/20 11:45:05;;;;;;;5.80;2.00;;;;;;;34.66;33.06;100652.17;108130;1280;22015;-61
2023/09/20 11:47:33;;;;;;;7.00;2.10;;;;;;;34.49;32.76;100645.26;108139;1288;21981;-61
2023/09/20 11:50:00;;;;;;;7.50;2.80;;;;;;;34.24;32.55;100643.40;108100;1288;22005;-66
2023/09/20 11:52:25;;;;;;;5.60;2.50;;;;;;;33.96;32.94;100642.77;108055;1288;21979;-61
2023/09/20 11:54:55;;;;;;;3.60;1.70;;;;;;;33.76;33.24;100646.16;108103;1287;21990;-67
2023/09/20 11:57:22;;;;;;;6.60;2.50;;;;;;;33.62;33.33;100649.80;108115;1287;21989;-61